sensor_id;sensor_type;location;lat;lon;timestamp;temperature;humidity
25716;DHT22;13573;50.936;4.328;2022-07-29T00:02:50;19.00;99.90
25716;DHT22;13573;50.936;4.328;2022-07-29T00:05:17;19.70;99.90
25716;DHT22;13573;50.936;4.328;2022-07-29T00:07:44;19.00;99.90
25716;DHT22;13573;50.936;4.328;2022-07-29T00:10:10;17.80;99.90
25716;DHT22;13573;50.936;4.328;2022-07-29T00:12:37;19.20;99.90
25716;DHT22;13573;50.936;4.328;2022-07-29T00:15:04;19.60;99.90
25716;DHT22;13573;50.936;4.328;2022-07-29T00:19:59;18.70;99.90
25716;DHT22;13573;50.936;4.328;2022-07-29T00:24:53;19.10;99.90
25716;DHT22;13573;50.936;4.328;2022-07-29T00:29:47;19.00;99.90
25716;DHT22;13573;50.936;4.328;2022-07-29T00:34:41;18.80;99.90
25716;DHT22;13573;50.936;4.328;2022-07-29T00:39:39;18.00;99.90
25716;DHT22;13573;50.936;4.328;2022-07-29T00:44:41;18.80;99.90
25716;DHT22;13573;50.936;4.328;2022-07-29T00:49:35;19.10;99.90
25716;DHT22;13573;50.936;4.328;2022-07-29T00:52:06;18.50;99.90
25716;DHT22;13573;50.936;4.328;2022-07-29T00:54:33;19.20;99.90
25716;DHT22;13573;50.936;4.328;2022-07-29T00:57:00;18.40;99.90
25716;DHT22;13573;50.936;4.328;2022-07-29T00:59:28;18.50;99.90
25716;DHT22;13573;50.936;4.328;2022-07-29T01:01:55;18.60;99.90
25716;DHT22;13573;50.936;4.328;2022-07-29T01:04:21;18.10;99.90
25716;DHT22;13573;50.936;4.328;2022-07-29T01:06:49;18.40;99.90
25716;DHT22;13573;50.936;4.328;2022-07-29T01:09:18;18.30;99.90
25716;DHT22;13573;50.936;4.328;2022-07-29T01:11:46;18.60;99.90
25716;DHT22;13573;50.936;4.328;2022-07-29T01:14:15;18.60;99.90
25716;DHT22;13573;50.936;4.328;2022-07-29T01:16:51;18.20;99.90
25716;DHT22;13573;50.936;4.328;2022-07-29T01:22:24;18.40;99.90
25716;DHT22;13573;50.936;4.328;2022-07-29T01:30:05;18.40;99.90
25716;DHT22;13573;50.936;4.328;2022-07-29T01:32:35;18.40;99.90
25716;DHT22;13573;50.936;4.328;2022-07-29T01:35:10;18.20;99.90
25716;DHT22;13573;50.936;4.328;2022-07-29T01:37:43;18.20;99.90
25716;DHT22;13573;50.936;4.328;2022-07-29T01:40:18;18.30;99.90
25716;DHT22;13573;50.936;4.328;2022-07-29T01:42:44;18.00;99.90
25716;DHT22;13573;50.936;4.328;2022-07-29T01:45:17;18.30;99.90
25716;DHT22;13573;50.936;4.328;2022-07-29T01:48:24;18.20;99.90
25716;DHT22;13573;50.936;4.328;2022-07-29T01:50:40;18.40;99.90
25716;DHT22;13573;50.936;4.328;2022-07-29T01:53:09;18.00;99.90
25716;DHT22;13573;50.936;4.328;2022-07-29T01:55:39;18.30;99.90
25716;DHT22;13573;50.936;4.328;2022-07-29T01:58:08;17.60;99.90
25716;DHT22;13573;50.936;4.328;2022-07-29T02:00:36;18.10;99.90
25716;DHT22;13573;50.936;4.328;2022-07-29T02:03:07;17.90;99.90
25716;DHT22;13573;50.936;4.328;2022-07-29T02:05:35;17.80;99.90
25716;DHT22;13573;50.936;4.328;2022-07-29T02:08:04;18.10;99.90
25716;DHT22;13573;50.936;4.328;2022-07-29T02:10:33;18.00;99.90
25716;DHT22;13573;50.936;4.328;2022-07-29T02:13:02;18.00;99.90
25716;DHT22;13573;50.936;4.328;2022-07-29T02:15:32;16.40;99.90
25716;DHT22;13573;50.936;4.328;2022-07-29T02:18:05;17.80;99.90
25716;DHT22;13573;50.936;4.328;2022-07-29T02:20:31;18.30;99.90
25716;DHT22;13573;50.936;4.328;2022-07-29T02:22:58;17.80;99.90
25716;DHT22;13573;50.936;4.328;2022-07-29T02:25:26;17.90;99.90
25716;DHT22;13573;50.936;4.328;2022-07-29T02:27:55;17.80;99.90
25716;DHT22;13573;50.936;4.328;2022-07-29T02:30:23;17.50;99.90
25716;DHT22;13573;50.936;4.328;2022-07-29T02:32:51;17.00;99.90
25716;DHT22;13573;50.936;4.328;2022-07-29T02:35:21;17.20;99.90
25716;DHT22;13573;50.936;4.328;2022-07-29T02:37:48;17.50;99.90
25716;DHT22;13573;50.936;4.328;2022-07-29T02:40:34;17.50;99.90
25716;DHT22;13573;50.936;4.328;2022-07-29T02:43:06;18.00;99.90
25716;DHT22;13573;50.936;4.328;2022-07-29T02:48:05;17.00;99.90
25716;DHT22;13573;50.936;4.328;2022-07-29T02:50:37;17.40;99.90
25716;DHT22;13573;50.936;4.328;2022-07-29T02:53:08;16.90;99.90
25716;DHT22;13573;50.936;4.328;2022-07-29T02:55:40;17.60;99.90
25716;DHT22;13573;50.936;4.328;2022-07-29T02:58:30;17.10;99.90
25716;DHT22;13573;50.936;4.328;2022-07-29T03:01:01;16.80;99.90
25716;DHT22;13573;50.936;4.328;2022-07-29T03:03:31;16.50;99.90
25716;DHT22;13573;50.936;4.328;2022-07-29T03:08:27;17.00;99.90
25716;DHT22;13573;50.936;4.328;2022-07-29T03:10:55;17.10;99.90
25716;DHT22;13573;50.936;4.328;2022-07-29T03:13:25;16.80;99.90
25716;DHT22;13573;50.936;4.328;2022-07-29T03:15:55;17.20;99.90
25716;DHT22;13573;50.936;4.328;2022-07-29T03:18:23;17.20;99.90
25716;DHT22;13573;50.936;4.328;2022-07-29T03:20:50;17.10;99.90
25716;DHT22;13573;50.936;4.328;2022-07-29T03:23:20;17.00;99.90
25716;DHT22;13573;50.936;4.328;2022-07-29T03:25:49;16.50;99.90
25716;DHT22;13573;50.936;4.328;2022-07-29T03:28:16;17.30;99.90
25716;DHT22;13573;50.936;4.328;2022-07-29T03:30:43;17.40;99.90
25716;DHT22;13573;50.936;4.328;2022-07-29T03:33:10;17.10;99.90
25716;DHT22;13573;50.936;4.328;2022-07-29T03:35:38;16.80;99.90
25716;DHT22;13573;50.936;4.328;2022-07-29T03:38:04;16.20;99.90
25716;DHT22;13573;50.936;4.328;2022-07-29T03:40:35;16.80;99.90
25716;DHT22;13573;50.936;4.328;2022-07-29T03:43:03;16.80;99.90
25716;DHT22;13573;50.936;4.328;2022-07-29T03:45:31;16.80;99.90
25716;DHT22;13573;50.936;4.328;2022-07-29T03:48:02;16.90;99.90
25716;DHT22;13573;50.936;4.328;2022-07-29T03:50:30;16.90;99.90
25716;DHT22;13573;50.936;4.328;2022-07-29T03:55:25;16.80;99.90
25716;DHT22;13573;50.936;4.328;2022-07-29T03:57:53;16.80;99.90
25716;DHT22;13573;50.936;4.328;2022-07-29T04:00:23;17.10;99.90
25716;DHT22;13573;50.936;4.328;2022-07-29T04:02:50;16.60;99.90
25716;DHT22;13573;50.936;4.328;2022-07-29T04:05:18;16.80;99.90
25716;DHT22;13573;50.936;4.328;2022-07-29T04:07:45;16.90;99.90
25716;DHT22;13573;50.936;4.328;2022-07-29T04:10:13;16.60;99.90
25716;DHT22;13573;50.936;4.328;2022-07-29T04:15:08;17.10;99.90
25716;DHT22;13573;50.936;4.328;2022-07-29T04:17:35;16.60;99.90
25716;DHT22;13573;50.936;4.328;2022-07-29T04:20:02;16.40;99.90
25716;DHT22;13573;50.936;4.328;2022-07-29T04:22:30;16.40;99.90
25716;DHT22;13573;50.936;4.328;2022-07-29T04:24:56;16.40;99.90
25716;DHT22;13573;50.936;4.328;2022-07-29T04:27:23;16.30;99.90
25716;DHT22;13573;50.936;4.328;2022-07-29T04:29:50;16.60;99.90
25716;DHT22;13573;50.936;4.328;2022-07-29T04:32:17;16.50;99.90
25716;DHT22;13573;50.936;4.328;2022-07-29T04:34:43;16.10;99.90
25716;DHT22;13573;50.936;4.328;2022-07-29T04:37:12;16.60;99.90
25716;DHT22;13573;50.936;4.328;2022-07-29T04:39:39;16.00;99.90
25716;DHT22;13573;50.936;4.328;2022-07-29T04:42:06;16.00;99.90
25716;DHT22;13573;50.936;4.328;2022-07-29T04:44:32;14.60;99.90
25716;DHT22;13573;50.936;4.328;2022-07-29T04:49:26;16.30;99.90
25716;DHT22;13573;50.936;4.328;2022-07-29T04:56:47;15.10;99.90
25716;DHT22;13573;50.936;4.328;2022-07-29T04:59:17;16.70;99.90
25716;DHT22;13573;50.936;4.328;2022-07-29T05:01:43;16.60;99.90
25716;DHT22;13573;50.936;4.328;2022-07-29T05:04:10;16.70;99.90
25716;DHT22;13573;50.936;4.328;2022-07-29T05:06:37;16.60;99.90
25716;DHT22;13573;50.936;4.328;2022-07-29T05:09:03;15.20;99.90
25716;DHT22;13573;50.936;4.328;2022-07-29T05:11:31;16.80;99.90
25716;DHT22;13573;50.936;4.328;2022-07-29T05:13:57;16.80;99.90
25716;DHT22;13573;50.936;4.328;2022-07-29T05:18:51;17.50;99.90
25716;DHT22;13573;50.936;4.328;2022-07-29T05:21:17;17.80;99.90
25716;DHT22;13573;50.936;4.328;2022-07-29T05:26:11;18.20;99.90
25716;DHT22;13573;50.936;4.328;2022-07-29T05:28:38;16.90;99.90
25716;DHT22;13573;50.936;4.328;2022-07-29T05:31:04;18.90;99.90
25716;DHT22;13573;50.936;4.328;2022-07-29T05:33:31;17.70;99.90
25716;DHT22;13573;50.936;4.328;2022-07-29T05:35:58;18.90;99.90
25716;DHT22;13573;50.936;4.328;2022-07-29T05:38:25;19.20;99.90
25716;DHT22;13573;50.936;4.328;2022-07-29T05:40:51;19.40;99.90
25716;DHT22;13573;50.936;4.328;2022-07-29T05:43:18;17.90;99.90
25716;DHT22;13573;50.936;4.328;2022-07-29T05:45:45;20.10;99.90
25716;DHT22;13573;50.936;4.328;2022-07-29T05:48:11;20.00;99.90
25716;DHT22;13573;50.936;4.328;2022-07-29T05:50:38;19.50;99.90
25716;DHT22;13573;50.936;4.328;2022-07-29T05:53:04;18.90;99.90
25716;DHT22;13573;50.936;4.328;2022-07-29T05:55:31;18.80;99.90
25716;DHT22;13573;50.936;4.328;2022-07-29T05:57:58;18.70;99.90
25716;DHT22;13573;50.936;4.328;2022-07-29T06:02:51;17.30;99.90
25716;DHT22;13573;50.936;4.328;2022-07-29T06:05:18;20.90;99.90
25716;DHT22;13573;50.936;4.328;2022-07-29T06:07:44;18.80;99.90
25716;DHT22;13573;50.936;4.328;2022-07-29T06:10:11;19.30;99.90
25716;DHT22;13573;50.936;4.328;2022-07-29T06:12:38;18.60;99.90
25716;DHT22;13573;50.936;4.328;2022-07-29T06:17:31;20.90;99.90
25716;DHT22;13573;50.936;4.328;2022-07-29T06:22:25;21.50;99.90
25716;DHT22;13573;50.936;4.328;2022-07-29T06:24:51;22.10;99.90
25716;DHT22;13573;50.936;4.328;2022-07-29T06:27:18;22.40;99.90
25716;DHT22;13573;50.936;4.328;2022-07-29T06:32:11;24.40;99.90
25716;DHT22;13573;50.936;4.328;2022-07-29T06:34:38;23.50;99.90
25716;DHT22;13573;50.936;4.328;2022-07-29T06:37:07;24.20;99.90
25716;DHT22;13573;50.936;4.328;2022-07-29T06:39:35;24.80;99.90
25716;DHT22;13573;50.936;4.328;2022-07-29T06:42:03;24.40;99.90
25716;DHT22;13573;50.936;4.328;2022-07-29T06:44:31;24.60;99.90
25716;DHT22;13573;50.936;4.328;2022-07-29T06:47:00;24.10;99.90
25716;DHT22;13573;50.936;4.328;2022-07-29T06:49:27;24.10;99.90
25716;DHT22;13573;50.936;4.328;2022-07-29T06:54:21;24.40;99.90
25716;DHT22;13573;50.936;4.328;2022-07-29T06:56:49;25.00;99.90
25716;DHT22;13573;50.936;4.328;2022-07-29T06:59:16;24.70;99.90
25716;DHT22;13573;50.936;4.328;2022-07-29T07:01:43;25.00;99.90
25716;DHT22;13573;50.936;4.328;2022-07-29T07:04:10;23.70;99.90
25716;DHT22;13573;50.936;4.328;2022-07-29T07:06:37;24.60;99.90
25716;DHT22;13573;50.936;4.328;2022-07-29T07:09:04;23.50;99.90
25716;DHT22;13573;50.936;4.328;2022-07-29T07:11:31;24.10;99.90
25716;DHT22;13573;50.936;4.328;2022-07-29T07:13:58;24.20;99.90
25716;DHT22;13573;50.936;4.328;2022-07-29T07:16:25;22.10;99.90
25716;DHT22;13573;50.936;4.328;2022-07-29T07:18:51;23.60;99.90
25716;DHT22;13573;50.936;4.328;2022-07-29T07:21:18;24.20;99.90
25716;DHT22;13573;50.936;4.328;2022-07-29T07:23:46;23.70;99.90
25716;DHT22;13573;50.936;4.328;2022-07-29T07:26:12;25.20;99.90
25716;DHT22;13573;50.936;4.328;2022-07-29T07:28:46;27.30;99.90
25716;DHT22;13573;50.936;4.328;2022-07-29T07:33:40;25.70;99.90
25716;DHT22;13573;50.936;4.328;2022-07-29T07:36:07;26.00;99.90
25716;DHT22;13573;50.936;4.328;2022-07-29T07:41:00;27.60;99.90
25716;DHT22;13573;50.936;4.328;2022-07-29T07:43:26;27.70;99.90
25716;DHT22;13573;50.936;4.328;2022-07-29T07:45:52;27.10;99.90
25716;DHT22;13573;50.936;4.328;2022-07-29T07:48:19;26.80;99.90
25716;DHT22;13573;50.936;4.328;2022-07-29T07:50:45;28.50;99.90
25716;DHT22;13573;50.936;4.328;2022-07-29T07:53:11;29.10;99.30
25716;DHT22;13573;50.936;4.328;2022-07-29T07:55:40;29.80;99.90
25716;DHT22;13573;50.936;4.328;2022-07-29T07:58:07;30.30;99.30
25716;DHT22;13573;50.936;4.328;2022-07-29T08:00:33;30.10;99.00
25716;DHT22;13573;50.936;4.328;2022-07-29T08:02:59;29.30;99.60
25716;DHT22;13573;50.936;4.328;2022-07-29T08:05:26;31.20;98.00
25716;DHT22;13573;50.936;4.328;2022-07-29T08:07:52;31.60;97.60
25716;DHT22;13573;50.936;4.328;2022-07-29T08:10:19;31.40;98.00
25716;DHT22;13573;50.936;4.328;2022-07-29T08:12:51;31.00;95.50
25716;DHT22;13573;50.936;4.328;2022-07-29T08:15:17;30.60;97.60
25716;DHT22;13573;50.936;4.328;2022-07-29T08:17:43;31.50;95.50
25716;DHT22;13573;50.936;4.328;2022-07-29T08:20:10;31.60;96.70
25716;DHT22;13573;50.936;4.328;2022-07-29T08:22:36;32.40;96.40
25716;DHT22;13573;50.936;4.328;2022-07-29T08:25:02;32.80;95.70
25716;DHT22;13573;50.936;4.328;2022-07-29T08:27:30;32.70;95.30
25716;DHT22;13573;50.936;4.328;2022-07-29T08:29:57;31.80;94.80
25716;DHT22;13573;50.936;4.328;2022-07-29T08:32:24;33.50;95.20
25716;DHT22;13573;50.936;4.328;2022-07-29T08:34:51;34.10;94.80
25716;DHT22;13573;50.936;4.328;2022-07-29T08:37:17;33.60;92.90
25716;DHT22;13573;50.936;4.328;2022-07-29T08:39:43;33.50;95.00
25716;DHT22;13573;50.936;4.328;2022-07-29T08:42:11;33.50;93.40
25716;DHT22;13573;50.936;4.328;2022-07-29T08:44:38;33.80;94.30
25716;DHT22;13573;50.936;4.328;2022-07-29T08:47:04;33.80;94.10
25716;DHT22;13573;50.936;4.328;2022-07-29T08:49:33;32.20;93.70
25716;DHT22;13573;50.936;4.328;2022-07-29T08:52:01;31.70;94.70
25716;DHT22;13573;50.936;4.328;2022-07-29T08:54:28;32.80;94.40
25716;DHT22;13573;50.936;4.328;2022-07-29T08:56:55;34.30;93.80
25716;DHT22;13573;50.936;4.328;2022-07-29T08:59:25;34.00;93.30
25716;DHT22;13573;50.936;4.328;2022-07-29T09:01:57;34.30;92.00
25716;DHT22;13573;50.936;4.328;2022-07-29T09:04:30;34.60;93.50
25716;DHT22;13573;50.936;4.328;2022-07-29T09:06:57;34.40;91.50
25716;DHT22;13573;50.936;4.328;2022-07-29T09:09:26;33.50;92.40
25716;DHT22;13573;50.936;4.328;2022-07-29T09:11:53;33.10;92.10
25716;DHT22;13573;50.936;4.328;2022-07-29T09:14:20;34.40;91.10
25716;DHT22;13573;50.936;4.328;2022-07-29T09:16:48;35.10;92.10
25716;DHT22;13573;50.936;4.328;2022-07-29T09:19:32;35.10;91.70
25716;DHT22;13573;50.936;4.328;2022-07-29T09:22:03;35.20;90.30
25716;DHT22;13573;50.936;4.328;2022-07-29T09:24:39;34.80;91.20
25716;DHT22;13573;50.936;4.328;2022-07-29T09:27:19;35.60;90.30
25716;DHT22;13573;50.936;4.328;2022-07-29T09:29:54;35.40;91.00
25716;DHT22;13573;50.936;4.328;2022-07-29T09:32:15;35.30;88.10
25716;DHT22;13573;50.936;4.328;2022-07-29T09:34:42;34.80;91.80
25716;DHT22;13573;50.936;4.328;2022-07-29T09:37:09;35.50;90.50
25716;DHT22;13573;50.936;4.328;2022-07-29T09:39:39;35.80;90.40
25716;DHT22;13573;50.936;4.328;2022-07-29T09:42:08;35.40;90.00
25716;DHT22;13573;50.936;4.328;2022-07-29T09:44:46;34.90;90.20
25716;DHT22;13573;50.936;4.328;2022-07-29T09:47:14;36.00;87.80
25716;DHT22;13573;50.936;4.328;2022-07-29T09:50:00;36.70;86.70
25716;DHT22;13573;50.936;4.328;2022-07-29T09:52:28;36.80;86.10
25716;DHT22;13573;50.936;4.328;2022-07-29T09:55:05;36.10;86.50
25716;DHT22;13573;50.936;4.328;2022-07-29T09:57:32;36.20;87.30
25716;DHT22;13573;50.936;4.328;2022-07-29T10:00:03;36.40;87.80
25716;DHT22;13573;50.936;4.328;2022-07-29T10:02:33;35.60;87.10
25716;DHT22;13573;50.936;4.328;2022-07-29T10:05:01;36.40;85.90
25716;DHT22;13573;50.936;4.328;2022-07-29T10:10:02;36.60;81.90
25716;DHT22;13573;50.936;4.328;2022-07-29T10:12:29;36.70;82.20
25716;DHT22;13573;50.936;4.328;2022-07-29T10:14:56;37.20;79.60
25716;DHT22;13573;50.936;4.328;2022-07-29T10:17:23;38.70;82.80
25716;DHT22;13573;50.936;4.328;2022-07-29T10:19:49;38.70;82.40
25716;DHT22;13573;50.936;4.328;2022-07-29T10:22:16;37.60;81.00
25716;DHT22;13573;50.936;4.328;2022-07-29T10:24:43;39.10;80.90
25716;DHT22;13573;50.936;4.328;2022-07-29T10:27:10;37.90;77.70
25716;DHT22;13573;50.936;4.328;2022-07-29T10:29:37;39.50;81.00
25716;DHT22;13573;50.936;4.328;2022-07-29T10:32:20;37.00;78.50
25716;DHT22;13573;50.936;4.328;2022-07-29T10:35:18;35.40;80.80
25716;DHT22;13573;50.936;4.328;2022-07-29T10:38:55;35.30;80.90
25716;DHT22;13573;50.936;4.328;2022-07-29T10:40:54;35.70;80.80
25716;DHT22;13573;50.936;4.328;2022-07-29T10:43:29;33.40;82.40
25716;DHT22;13573;50.936;4.328;2022-07-29T10:46:00;34.90;81.80
25716;DHT22;13573;50.936;4.328;2022-07-29T10:48:27;35.60;81.30
25716;DHT22;13573;50.936;4.328;2022-07-29T10:51:00;37.20;79.90
25716;DHT22;13573;50.936;4.328;2022-07-29T10:56:22;38.20;76.30
25716;DHT22;13573;50.936;4.328;2022-07-29T10:58:39;39.70;76.60
25716;DHT22;13573;50.936;4.328;2022-07-29T11:01:28;37.50;74.00
25716;DHT22;13573;50.936;4.328;2022-07-29T11:03:45;38.50;75.60
25716;DHT22;13573;50.936;4.328;2022-07-29T11:06:13;38.60;73.80
25716;DHT22;13573;50.936;4.328;2022-07-29T11:08:41;38.40;71.80
25716;DHT22;13573;50.936;4.328;2022-07-29T11:11:30;40.20;73.90
25716;DHT22;13573;50.936;4.328;2022-07-29T11:13:57;39.00;69.80
25716;DHT22;13573;50.936;4.328;2022-07-29T11:16:24;37.90;71.40
25716;DHT22;13573;50.936;4.328;2022-07-29T11:21:35;38.50;74.10
25716;DHT22;13573;50.936;4.328;2022-07-29T11:24:11;38.80;71.80
25716;DHT22;13573;50.936;4.328;2022-07-29T11:31:42;37.10;72.60
25716;DHT22;13573;50.936;4.328;2022-07-29T11:39:28;37.30;71.60
25716;DHT22;13573;50.936;4.328;2022-07-29T11:47:24;37.80;70.20
25716;DHT22;13573;50.936;4.328;2022-07-29T11:49:53;40.10;71.10
25716;DHT22;13573;50.936;4.328;2022-07-29T11:52:20;39.60;68.20
25716;DHT22;13573;50.936;4.328;2022-07-29T11:54:48;40.20;68.70
25716;DHT22;13573;50.936;4.328;2022-07-29T11:57:18;38.70;67.50
25716;DHT22;13573;50.936;4.328;2022-07-29T11:59:46;40.20;69.10
25716;DHT22;13573;50.936;4.328;2022-07-29T12:04:51;37.80;69.30
25716;DHT22;13573;50.936;4.328;2022-07-29T12:07:18;39.10;67.50
25716;DHT22;13573;50.936;4.328;2022-07-29T12:09:51;39.20;66.60
25716;DHT22;13573;50.936;4.328;2022-07-29T12:12:18;38.60;68.40
25716;DHT22;13573;50.936;4.328;2022-07-29T12:19:51;38.40;67.10
25716;DHT22;13573;50.936;4.328;2022-07-29T12:22:29;39.50;69.20
25716;DHT22;13573;50.936;4.328;2022-07-29T12:25:01;39.00;67.10
25716;DHT22;13573;50.936;4.328;2022-07-29T12:27:28;37.70;66.60
25716;DHT22;13573;50.936;4.328;2022-07-29T12:29:57;38.50;66.50
25716;DHT22;13573;50.936;4.328;2022-07-29T12:32:34;40.70;66.40
25716;DHT22;13573;50.936;4.328;2022-07-29T12:35:05;40.50;66.00
25716;DHT22;13573;50.936;4.328;2022-07-29T12:37:35;39.80;66.40
25716;DHT22;13573;50.936;4.328;2022-07-29T12:40:03;38.00;68.70
25716;DHT22;13573;50.936;4.328;2022-07-29T12:42:31;37.10;66.50
25716;DHT22;13573;50.936;4.328;2022-07-29T12:44:58;37.90;67.90
25716;DHT22;13573;50.936;4.328;2022-07-29T12:47:25;39.70;69.00
25716;DHT22;13573;50.936;4.328;2022-07-29T12:50:13;38.10;65.00
25716;DHT22;13573;50.936;4.328;2022-07-29T12:52:44;39.40;65.10
25716;DHT22;13573;50.936;4.328;2022-07-29T12:55:11;39.20;63.10
25716;DHT22;13573;50.936;4.328;2022-07-29T12:57:46;40.20;63.90
25716;DHT22;13573;50.936;4.328;2022-07-29T13:00:14;39.60;63.90
25716;DHT22;13573;50.936;4.328;2022-07-29T13:02:42;40.40;65.30
25716;DHT22;13573;50.936;4.328;2022-07-29T13:05:10;40.10;64.20
25716;DHT22;13573;50.936;4.328;2022-07-29T13:07:38;39.00;64.90
25716;DHT22;13573;50.936;4.328;2022-07-29T13:10:13;37.60;68.30
25716;DHT22;13573;50.936;4.328;2022-07-29T13:15:19;37.50;70.30
25716;DHT22;13573;50.936;4.328;2022-07-29T13:17:46;37.40;66.50
25716;DHT22;13573;50.936;4.328;2022-07-29T13:20:13;36.80;68.40
25716;DHT22;13573;50.936;4.328;2022-07-29T13:22:41;37.30;69.00
25716;DHT22;13573;50.936;4.328;2022-07-29T13:25:08;37.10;69.20
25716;DHT22;13573;50.936;4.328;2022-07-29T13:27:38;37.20;69.40
25716;DHT22;13573;50.936;4.328;2022-07-29T13:30:07;37.00;68.50
25716;DHT22;13573;50.936;4.328;2022-07-29T13:32:35;36.90;68.90
25716;DHT22;13573;50.936;4.328;2022-07-29T13:35:05;36.40;70.20
25716;DHT22;13573;50.936;4.328;2022-07-29T13:37:33;36.00;69.80
25716;DHT22;13573;50.936;4.328;2022-07-29T13:40:02;35.70;71.10
25716;DHT22;13573;50.936;4.328;2022-07-29T13:42:29;35.90;71.00
25716;DHT22;13573;50.936;4.328;2022-07-29T13:44:56;35.70;67.20
25716;DHT22;13573;50.936;4.328;2022-07-29T13:47:22;36.50;70.40
25716;DHT22;13573;50.936;4.328;2022-07-29T13:49:49;36.40;68.60
25716;DHT22;13573;50.936;4.328;2022-07-29T13:52:16;36.90;69.50
25716;DHT22;13573;50.936;4.328;2022-07-29T13:54:43;35.60;70.00
25716;DHT22;13573;50.936;4.328;2022-07-29T13:57:11;35.50;67.60
25716;DHT22;13573;50.936;4.328;2022-07-29T13:59:40;34.40;72.20
25716;DHT22;13573;50.936;4.328;2022-07-29T14:02:08;34.50;72.10
25716;DHT22;13573;50.936;4.328;2022-07-29T14:04:35;35.30;71.40
25716;DHT22;13573;50.936;4.328;2022-07-29T14:07:02;36.10;67.00
25716;DHT22;13573;50.936;4.328;2022-07-29T14:09:29;36.70;68.40
25716;DHT22;13573;50.936;4.328;2022-07-29T14:11:56;36.70;67.10
25716;DHT22;13573;50.936;4.328;2022-07-29T14:14:23;36.50;65.70
25716;DHT22;13573;50.936;4.328;2022-07-29T14:16:50;36.40;66.30
25716;DHT22;13573;50.936;4.328;2022-07-29T14:19:17;36.80;67.00
25716;DHT22;13573;50.936;4.328;2022-07-29T14:21:43;36.40;67.80
25716;DHT22;13573;50.936;4.328;2022-07-29T14:24:10;36.50;67.20
25716;DHT22;13573;50.936;4.328;2022-07-29T14:26:37;37.50;65.60
25716;DHT22;13573;50.936;4.328;2022-07-29T14:29:03;36.90;68.70
25716;DHT22;13573;50.936;4.328;2022-07-29T14:31:31;36.00;71.00
25716;DHT22;13573;50.936;4.328;2022-07-29T14:33:57;34.20;71.20
25716;DHT22;13573;50.936;4.328;2022-07-29T14:36:24;33.70;71.70
25716;DHT22;13573;50.936;4.328;2022-07-29T14:38:51;34.80;68.90
25716;DHT22;13573;50.936;4.328;2022-07-29T14:41:17;34.80;74.70
25716;DHT22;13573;50.936;4.328;2022-07-29T14:43:44;33.80;75.00
25716;DHT22;13573;50.936;4.328;2022-07-29T14:46:10;33.40;73.80
25716;DHT22;13573;50.936;4.328;2022-07-29T14:48:37;33.10;73.30
25716;DHT22;13573;50.936;4.328;2022-07-29T14:51:04;33.60;76.10
25716;DHT22;13573;50.936;4.328;2022-07-29T14:53:31;32.90;76.20
25716;DHT22;13573;50.936;4.328;2022-07-29T14:55:58;32.80;75.90
25716;DHT22;13573;50.936;4.328;2022-07-29T14:58:26;32.70;76.10
25716;DHT22;13573;50.936;4.328;2022-07-29T15:00:52;32.90;76.50
25716;DHT22;13573;50.936;4.328;2022-07-29T15:05:47;31.90;77.10
25716;DHT22;13573;50.936;4.328;2022-07-29T15:08:13;32.20;77.30
25716;DHT22;13573;50.936;4.328;2022-07-29T15:10:41;31.80;71.60
25716;DHT22;13573;50.936;4.328;2022-07-29T15:13:07;32.10;77.80
25716;DHT22;13573;50.936;4.328;2022-07-29T15:15:34;31.90;76.80
25716;DHT22;13573;50.936;4.328;2022-07-29T15:18:01;30.50;75.00
25716;DHT22;13573;50.936;4.328;2022-07-29T15:20:28;30.30;75.10
25716;DHT22;13573;50.936;4.328;2022-07-29T15:22:56;31.60;77.10
25716;DHT22;13573;50.936;4.328;2022-07-29T15:25:24;32.00;77.10
25716;DHT22;13573;50.936;4.328;2022-07-29T15:27:51;30.60;77.80
25716;DHT22;13573;50.936;4.328;2022-07-29T15:30:18;31.30;78.20
25716;DHT22;13573;50.936;4.328;2022-07-29T15:32:45;31.50;78.40
25716;DHT22;13573;50.936;4.328;2022-07-29T15:35:12;31.30;73.30
25716;DHT22;13573;50.936;4.328;2022-07-29T15:37:39;30.70;79.80
25716;DHT22;13573;50.936;4.328;2022-07-29T15:40:07;31.20;79.90
25716;DHT22;13573;50.936;4.328;2022-07-29T15:42:35;30.80;79.60
25716;DHT22;13573;50.936;4.328;2022-07-29T15:45:03;31.20;79.60
25716;DHT22;13573;50.936;4.328;2022-07-29T15:47:30;30.20;80.00
25716;DHT22;13573;50.936;4.328;2022-07-29T15:49:57;30.60;80.00
25716;DHT22;13573;50.936;4.328;2022-07-29T15:52:23;30.30;79.90
25716;DHT22;13573;50.936;4.328;2022-07-29T15:54:50;31.20;74.00
25716;DHT22;13573;50.936;4.328;2022-07-29T15:57:17;30.80;74.50
25716;DHT22;13573;50.936;4.328;2022-07-29T15:59:43;30.30;81.50
25716;DHT22;13573;50.936;4.328;2022-07-29T16:02:10;28.90;79.60
25716;DHT22;13573;50.936;4.328;2022-07-29T16:04:37;30.50;81.30
25716;DHT22;13573;50.936;4.328;2022-07-29T16:07:04;30.40;81.30
25716;DHT22;13573;50.936;4.328;2022-07-29T16:09:31;30.70;76.30
25716;DHT22;13573;50.936;4.328;2022-07-29T16:11:58;30.90;75.60
25716;DHT22;13573;50.936;4.328;2022-07-29T16:14:25;31.10;75.80
25716;DHT22;13573;50.936;4.328;2022-07-29T16:16:51;30.50;82.40
25716;DHT22;13573;50.936;4.328;2022-07-29T16:19:18;30.50;82.80
25716;DHT22;13573;50.936;4.328;2022-07-29T16:24:11;30.40;77.10
25716;DHT22;13573;50.936;4.328;2022-07-29T16:26:39;30.50;82.40
25716;DHT22;13573;50.936;4.328;2022-07-29T16:29:06;29.80;83.10
25716;DHT22;13573;50.936;4.328;2022-07-29T16:31:33;29.00;82.80
25716;DHT22;13573;50.936;4.328;2022-07-29T16:33:59;29.80;81.10
25716;DHT22;13573;50.936;4.328;2022-07-29T16:36:26;29.90;83.90
25716;DHT22;13573;50.936;4.328;2022-07-29T16:38:53;29.90;83.60
25716;DHT22;13573;50.936;4.328;2022-07-29T16:41:20;30.40;85.50
25716;DHT22;13573;50.936;4.328;2022-07-29T16:43:46;29.90;83.10
25716;DHT22;13573;50.936;4.328;2022-07-29T16:46:13;29.90;83.70
25716;DHT22;13573;50.936;4.328;2022-07-29T16:48:40;29.90;83.90
25716;DHT22;13573;50.936;4.328;2022-07-29T16:51:07;30.00;82.60
25716;DHT22;13573;50.936;4.328;2022-07-29T16:53:35;30.20;83.30
25716;DHT22;13573;50.936;4.328;2022-07-29T16:56:02;30.20;77.30
25716;DHT22;13573;50.936;4.328;2022-07-29T16:58:29;30.40;83.60
25716;DHT22;13573;50.936;4.328;2022-07-29T17:00:56;29.90;82.90
25716;DHT22;13573;50.936;4.328;2022-07-29T17:03:22;30.20;77.90
25716;DHT22;13573;50.936;4.328;2022-07-29T17:08:16;30.00;78.40
25716;DHT22;13573;50.936;4.328;2022-07-29T17:10:42;30.00;78.30
25716;DHT22;13573;50.936;4.328;2022-07-29T17:13:09;29.90;78.90
25716;DHT22;13573;50.936;4.328;2022-07-29T17:15:36;29.30;85.70
25716;DHT22;13573;50.936;4.328;2022-07-29T17:20:29;28.90;86.90
25716;DHT22;13573;50.936;4.328;2022-07-29T17:22:57;28.90;88.20
25716;DHT22;13573;50.936;4.328;2022-07-29T17:25:25;28.60;88.80
25716;DHT22;13573;50.936;4.328;2022-07-29T17:27:51;28.90;82.90